sensor_id;sensor_type;location;lat;lon;timestamp;temperature;humidity
11497;DHT22;5805;51.542;7.230;2023-05-07T00:02:14;17.00;99.90
11497;DHT22;5805;51.542;7.230;2023-05-07T00:04:40;17.00;99.90
11497;DHT22;5805;51.542;7.230;2023-05-07T00:07:06;17.10;99.90
11497;DHT22;5805;51.542;7.230;2023-05-07T00:09:31;17.00;99.90
11497;DHT22;5805;51.542;7.230;2023-05-07T00:11:58;17.00;99.90
11497;DHT22;5805;51.542;7.230;2023-05-07T00:14:24;17.10;99.90
11497;DHT22;5805;51.542;7.230;2023-05-07T00:16:50;17.10;99.90
11497;DHT22;5805;51.542;7.230;2023-05-07T00:19:15;17.10;99.90
11497;DHT22;5805;51.542;7.230;2023-05-07T00:21:41;17.10;99.90
11497;DHT22;5805;51.542;7.230;2023-05-07T00:24:07;17.10;99.90
11497;DHT22;5805;51.542;7.230;2023-05-07T00:26:32;17.10;99.90
11497;DHT22;5805;51.542;7.230;2023-05-07T00:28:59;17.10;99.90
11497;DHT22;5805;51.542;7.230;2023-05-07T00:31:25;17.00;99.90
11497;DHT22;5805;51.542;7.230;2023-05-07T00:33:51;16.90;99.90
11497;DHT22;5805;51.542;7.230;2023-05-07T00:36:17;16.90;99.90
11497;DHT22;5805;51.542;7.230;2023-05-07T00:38:42;16.80;99.90
11497;DHT22;5805;51.542;7.230;2023-05-07T00:41:08;16.70;99.90
11497;DHT22;5805;51.542;7.230;2023-05-07T00:43:34;16.60;99.90
11497;DHT22;5805;51.542;7.230;2023-05-07T00:46:01;16.60;99.90
11497;DHT22;5805;51.542;7.230;2023-05-07T00:48:27;16.70;99.90
11497;DHT22;5805;51.542;7.230;2023-05-07T00:50:52;16.60;99.90
11497;DHT22;5805;51.542;7.230;2023-05-07T00:53:18;16.70;99.90
11497;DHT22;5805;51.542;7.230;2023-05-07T00:55:44;16.70;99.90
11497;DHT22;5805;51.542;7.230;2023-05-07T00:58:10;16.70;99.90
11497;DHT22;5805;51.542;7.230;2023-05-07T01:00:36;16.70;99.90
11497;DHT22;5805;51.542;7.230;2023-05-07T01:03:03;16.70;99.90
11497;DHT22;5805;51.542;7.230;2023-05-07T01:05:30;16.80;99.90
11497;DHT22;5805;51.542;7.230;2023-05-07T01:07:57;16.80;99.90
11497;DHT22;5805;51.542;7.230;2023-05-07T01:10:23;16.80;99.90
11497;DHT22;5805;51.542;7.230;2023-05-07T01:12:50;16.80;99.90
11497;DHT22;5805;51.542;7.230;2023-05-07T01:15:17;16.80;99.90
11497;DHT22;5805;51.542;7.230;2023-05-07T01:17:43;16.80;99.90
11497;DHT22;5805;51.542;7.230;2023-05-07T01:20:11;16.80;99.90
11497;DHT22;5805;51.542;7.230;2023-05-07T01:22:39;16.80;99.90
11497;DHT22;5805;51.542;7.230;2023-05-07T01:25:06;16.80;99.90
11497;DHT22;5805;51.542;7.230;2023-05-07T01:27:32;16.80;99.90
11497;DHT22;5805;51.542;7.230;2023-05-07T01:29:57;16.80;99.90
11497;DHT22;5805;51.542;7.230;2023-05-07T01:32:29;16.80;99.90
11497;DHT22;5805;51.542;7.230;2023-05-07T01:34:57;16.80;99.90
11497;DHT22;5805;51.542;7.230;2023-05-07T01:37:25;16.80;99.90
11497;DHT22;5805;51.542;7.230;2023-05-07T01:39:52;16.80;99.90
11497;DHT22;5805;51.542;7.230;2023-05-07T01:42:18;16.80;99.90
11497;DHT22;5805;51.542;7.230;2023-05-07T01:44:44;16.70;99.90
11497;DHT22;5805;51.542;7.230;2023-05-07T01:47:10;16.60;99.90
11497;DHT22;5805;51.542;7.230;2023-05-07T01:49:37;16.60;99.90
11497;DHT22;5805;51.542;7.230;2023-05-07T01:52:03;16.60;99.90
11497;DHT22;5805;51.542;7.230;2023-05-07T01:54:29;16.60;99.90
11497;DHT22;5805;51.542;7.230;2023-05-07T01:56:56;16.60;99.90
11497;DHT22;5805;51.542;7.230;2023-05-07T01:59:22;16.60;99.90
11497;DHT22;5805;51.542;7.230;2023-05-07T02:01:48;16.60;99.90
11497;DHT22;5805;51.542;7.230;2023-05-07T02:04:14;16.60;99.90
11497;DHT22;5805;51.542;7.230;2023-05-07T02:06:39;16.60;99.90
11497;DHT22;5805;51.542;7.230;2023-05-07T02:09:05;16.70;99.90
11497;DHT22;5805;51.542;7.230;2023-05-07T02:11:31;16.70;99.90
11497;DHT22;5805;51.542;7.230;2023-05-07T02:13:58;16.70;99.90
11497;DHT22;5805;51.542;7.230;2023-05-07T02:16:24;16.60;99.90
11497;DHT22;5805;51.542;7.230;2023-05-07T02:18:49;16.70;99.90
11497;DHT22;5805;51.542;7.230;2023-05-07T02:21:15;16.60;99.90
11497;DHT22;5805;51.542;7.230;2023-05-07T02:23:41;16.50;99.90
11497;DHT22;5805;51.542;7.230;2023-05-07T02:26:06;16.50;99.90
11497;DHT22;5805;51.542;7.230;2023-05-07T02:28:32;16.50;99.90
11497;DHT22;5805;51.542;7.230;2023-05-07T02:30:59;16.50;99.90
11497;DHT22;5805;51.542;7.230;2023-05-07T02:33:25;16.50;99.90
11497;DHT22;5805;51.542;7.230;2023-05-07T02:35:51;16.50;99.90
11497;DHT22;5805;51.542;7.230;2023-05-07T02:38:16;16.40;99.90
11497;DHT22;5805;51.542;7.230;2023-05-07T02:40:42;16.30;99.90
11497;DHT22;5805;51.542;7.230;2023-05-07T02:43:08;16.30;99.90
11497;DHT22;5805;51.542;7.230;2023-05-07T02:45:33;16.30;99.90
11497;DHT22;5805;51.542;7.230;2023-05-07T02:48:00;16.20;99.90
11497;DHT22;5805;51.542;7.230;2023-05-07T02:50:26;16.10;99.90
11497;DHT22;5805;51.542;7.230;2023-05-07T02:52:52;16.10;99.90
11497;DHT22;5805;51.542;7.230;2023-05-07T02:55:17;16.00;99.90
11497;DHT22;5805;51.542;7.230;2023-05-07T02:57:43;15.90;99.90
11497;DHT22;5805;51.542;7.230;2023-05-07T03:00:14;15.80;99.90
11497;DHT22;5805;51.542;7.230;2023-05-07T03:02:39;15.80;99.90
11497;DHT22;5805;51.542;7.230;2023-05-07T03:05:07;15.80;99.90
11497;DHT22;5805;51.542;7.230;2023-05-07T03:07:33;15.80;99.90
11497;DHT22;5805;51.542;7.230;2023-05-07T03:09:59;15.90;99.90
11497;DHT22;5805;51.542;7.230;2023-05-07T03:12:25;16.00;99.90
11497;DHT22;5805;51.542;7.230;2023-05-07T03:14:50;16.00;99.90
11497;DHT22;5805;51.542;7.230;2023-05-07T03:17:16;16.00;99.90
11497;DHT22;5805;51.542;7.230;2023-05-07T03:19:42;16.00;99.90
11497;DHT22;5805;51.542;7.230;2023-05-07T03:22:09;16.10;99.90
11497;DHT22;5805;51.542;7.230;2023-05-07T03:24:34;16.20;99.90
11497;DHT22;5805;51.542;7.230;2023-05-07T03:27:00;16.20;99.90
11497;DHT22;5805;51.542;7.230;2023-05-07T03:29:26;16.20;99.90
11497;DHT22;5805;51.542;7.230;2023-05-07T03:31:51;16.20;99.90
11497;DHT22;5805;51.542;7.230;2023-05-07T03:34:17;16.10;99.90
11497;DHT22;5805;51.542;7.230;2023-05-07T03:36:43;16.10;99.90
11497;DHT22;5805;51.542;7.230;2023-05-07T03:39:10;16.10;99.90
11497;DHT22;5805;51.542;7.230;2023-05-07T03:41:36;16.10;99.90
11497;DHT22;5805;51.542;7.230;2023-05-07T03:44:02;16.10;99.90
11497;DHT22;5805;51.542;7.230;2023-05-07T03:46:27;16.00;99.90
11497;DHT22;5805;51.542;7.230;2023-05-07T03:48:53;15.90;99.90
11497;DHT22;5805;51.542;7.230;2023-05-07T03:51:19;15.80;99.90
11497;DHT22;5805;51.542;7.230;2023-05-07T03:53:44;15.90;99.90
11497;DHT22;5805;51.542;7.230;2023-05-07T03:56:12;15.90;99.90
11497;DHT22;5805;51.542;7.230;2023-05-07T03:58:37;15.90;99.90
11497;DHT22;5805;51.542;7.230;2023-05-07T04:01:03;16.00;99.90
11497;DHT22;5805;51.542;7.230;2023-05-07T04:03:29;16.10;99.90
11497;DHT22;5805;51.542;7.230;2023-05-07T04:05:55;16.10;99.90
11497;DHT22;5805;51.542;7.230;2023-05-07T04:08:20;16.10;99.90
11497;DHT22;5805;51.542;7.230;2023-05-07T04:10:46;16.10;99.90
11497;DHT22;5805;51.542;7.230;2023-05-07T04:13:14;16.10;99.90
11497;DHT22;5805;51.542;7.230;2023-05-07T04:15:40;16.10;99.90
11497;DHT22;5805;51.542;7.230;2023-05-07T04:18:06;16.10;99.90
11497;DHT22;5805;51.542;7.230;2023-05-07T04:20:34;16.20;99.90
11497;DHT22;5805;51.542;7.230;2023-05-07T04:22:59;16.20;99.90
11497;DHT22;5805;51.542;7.230;2023-05-07T04:25:25;16.20;99.90
11497;DHT22;5805;51.542;7.230;2023-05-07T04:27:51;16.20;99.90
11497;DHT22;5805;51.542;7.230;2023-05-07T04:30:18;16.30;99.90
11497;DHT22;5805;51.542;7.230;2023-05-07T04:32:44;16.30;99.90
11497;DHT22;5805;51.542;7.230;2023-05-07T04:35:10;16.20;99.90
11497;DHT22;5805;51.542;7.230;2023-05-07T04:37:35;16.20;99.90
11497;DHT22;5805;51.542;7.230;2023-05-07T04:40:01;16.30;99.90
11497;DHT22;5805;51.542;7.230;2023-05-07T04:42:27;16.30;99.90
11497;DHT22;5805;51.542;7.230;2023-05-07T04:44:53;16.30;99.90
11497;DHT22;5805;51.542;7.230;2023-05-07T04:47:20;16.30;99.90
11497;DHT22;5805;51.542;7.230;2023-05-07T04:49:46;16.30;99.90
11497;DHT22;5805;51.542;7.230;2023-05-07T04:52:12;16.30;99.90
11497;DHT22;5805;51.542;7.230;2023-05-07T04:54:38;16.30;99.90
11497;DHT22;5805;51.542;7.230;2023-05-07T04:57:04;16.40;99.90
11497;DHT22;5805;51.542;7.230;2023-05-07T04:59:29;16.50;99.90
11497;DHT22;5805;51.542;7.230;2023-05-07T05:01:55;16.70;99.90
11497;DHT22;5805;51.542;7.230;2023-05-07T05:04:22;16.80;99.90
11497;DHT22;5805;51.542;7.230;2023-05-07T05:06:48;17.00;99.90
11497;DHT22;5805;51.542;7.230;2023-05-07T05:09:14;17.10;99.90
11497;DHT22;5805;51.542;7.230;2023-05-07T05:11:39;17.30;99.90
11497;DHT22;5805;51.542;7.230;2023-05-07T05:14:05;17.30;99.90
11497;DHT22;5805;51.542;7.230;2023-05-07T05:16:31;17.30;99.90
11497;DHT22;5805;51.542;7.230;2023-05-07T05:18:56;17.40;99.90
11497;DHT22;5805;51.542;7.230;2023-05-07T05:21:24;17.40;99.90
11497;DHT22;5805;51.542;7.230;2023-05-07T05:23:49;17.50;99.90
11497;DHT22;5805;51.542;7.230;2023-05-07T05:26:15;17.50;99.90
11497;DHT22;5805;51.542;7.230;2023-05-07T05:28:41;17.40;99.90
11497;DHT22;5805;51.542;7.230;2023-05-07T05:31:06;17.50;99.90
11497;DHT22;5805;51.542;7.230;2023-05-07T05:33:32;17.50;99.90
11497;DHT22;5805;51.542;7.230;2023-05-07T05:35:58;17.60;99.90
11497;DHT22;5805;51.542;7.230;2023-05-07T05:38:25;17.60;99.90
11497;DHT22;5805;51.542;7.230;2023-05-07T05:40:51;17.50;99.90
11497;DHT22;5805;51.542;7.230;2023-05-07T05:43:17;17.60;99.90
11497;DHT22;5805;51.542;7.230;2023-05-07T05:45:42;17.70;99.90
11497;DHT22;5805;51.542;7.230;2023-05-07T05:48:08;17.60;99.90
11497;DHT22;5805;51.542;7.230;2023-05-07T05:50:34;17.60;99.90
11497;DHT22;5805;51.542;7.230;2023-05-07T05:52:59;17.70;99.90
11497;DHT22;5805;51.542;7.230;2023-05-07T05:55:26;17.70;99.90
11497;DHT22;5805;51.542;7.230;2023-05-07T05:57:52;17.90;99.90
11497;DHT22;5805;51.542;7.230;2023-05-07T06:00:18;17.90;99.90
11497;DHT22;5805;51.542;7.230;2023-05-07T06:02:44;18.10;99.90
11497;DHT22;5805;51.542;7.230;2023-05-07T06:05:09;18.20;99.90
11497;DHT22;5805;51.542;7.230;2023-05-07T06:07:35;18.20;99.90
11497;DHT22;5805;51.542;7.230;2023-05-07T06:10:01;18.30;99.90
11497;DHT22;5805;51.542;7.230;2023-05-07T06:12:28;18.20;99.90
11497;DHT22;5805;51.542;7.230;2023-05-07T06:14:54;18.20;99.90
11497;DHT22;5805;51.542;7.230;2023-05-07T06:17:20;18.50;99.90
11497;DHT22;5805;51.542;7.230;2023-05-07T06:19:45;18.60;99.90
11497;DHT22;5805;51.542;7.230;2023-05-07T06:22:11;18.80;99.90
11497;DHT22;5805;51.542;7.230;2023-05-07T06:24:37;18.90;99.90
11497;DHT22;5805;51.542;7.230;2023-05-07T06:27:02;18.70;99.90
11497;DHT22;5805;51.542;7.230;2023-05-07T06:29:30;18.60;99.90
11497;DHT22;5805;51.542;7.230;2023-05-07T06:31:55;18.80;99.90
11497;DHT22;5805;51.542;7.230;2023-05-07T06:34:21;18.90;99.90
11497;DHT22;5805;51.542;7.230;2023-05-07T06:36:47;19.20;99.90
11497;DHT22;5805;51.542;7.230;2023-05-07T06:39:12;19.40;99.90
11497;DHT22;5805;51.542;7.230;2023-05-07T06:41:38;19.30;99.90
11497;DHT22;5805;51.542;7.230;2023-05-07T06:44:04;19.30;99.90
11497;DHT22;5805;51.542;7.230;2023-05-07T06:46:31;19.40;99.90
11497;DHT22;5805;51.542;7.230;2023-05-07T06:48:57;19.40;99.90
11497;DHT22;5805;51.542;7.230;2023-05-07T06:51:23;19.60;99.90
11497;DHT22;5805;51.542;7.230;2023-05-07T06:53:48;19.60;99.90
11497;DHT22;5805;51.542;7.230;2023-05-07T06:56:14;19.40;99.90
11497;DHT22;5805;51.542;7.230;2023-05-07T06:58:40;19.50;99.90
11497;DHT22;5805;51.542;7.230;2023-05-07T07:01:05;19.70;99.90
11497;DHT22;5805;51.542;7.230;2023-05-07T07:03:32;19.70;99.90
11497;DHT22;5805;51.542;7.230;2023-05-07T07:05:58;19.70;99.90
11497;DHT22;5805;51.542;7.230;2023-05-07T07:08:24;19.80;99.90
11497;DHT22;5805;51.542;7.230;2023-05-07T07:10:49;20.00;99.90
11497;DHT22;5805;51.542;7.230;2023-05-07T07:13:15;19.90;99.90
11497;DHT22;5805;51.542;7.230;2023-05-07T07:15:41;19.90;99.90
11497;DHT22;5805;51.542;7.230;2023-05-07T07:18:07;19.80;99.90
11497;DHT22;5805;51.542;7.230;2023-05-07T07:20:34;19.80;99.90
11497;DHT22;5805;51.542;7.230;2023-05-07T07:22:59;19.70;99.90
11497;DHT22;5805;51.542;7.230;2023-05-07T07:25:25;19.70;99.90
11497;DHT22;5805;51.542;7.230;2023-05-07T07:27:51;19.60;99.90
11497;DHT22;5805;51.542;7.230;2023-05-07T07:30:17;19.60;99.90
11497;DHT22;5805;51.542;7.230;2023-05-07T07:32:43;20.00;99.90
11497;DHT22;5805;51.542;7.230;2023-05-07T07:35:09;20.40;99.90
11497;DHT22;5805;51.542;7.230;2023-05-07T07:37:36;20.70;99.90
11497;DHT22;5805;51.542;7.230;2023-05-07T07:40:02;20.70;99.90
11497;DHT22;5805;51.542;7.230;2023-05-07T07:42:27;20.50;99.90
11497;DHT22;5805;51.542;7.230;2023-05-07T07:44:53;20.60;99.90
11497;DHT22;5805;51.542;7.230;2023-05-07T07:47:19;20.70;99.90
11497;DHT22;5805;51.542;7.230;2023-05-07T07:49:44;20.30;99.90
11497;DHT22;5805;51.542;7.230;2023-05-07T07:52:10;20.20;99.90
11497;DHT22;5805;51.542;7.230;2023-05-07T07:54:37;20.20;99.90
11497;DHT22;5805;51.542;7.230;2023-05-07T07:57:03;20.10;99.90
11497;DHT22;5805;51.542;7.230;2023-05-07T07:59:29;20.10;99.90
11497;DHT22;5805;51.542;7.230;2023-05-07T08:01:54;20.30;99.90
11497;DHT22;5805;51.542;7.230;2023-05-07T08:04:20;20.60;99.90
11497;DHT22;5805;51.542;7.230;2023-05-07T08:06:46;21.00;99.90
11497;DHT22;5805;51.542;7.230;2023-05-07T08:09:11;21.40;99.90
11497;DHT22;5805;51.542;7.230;2023-05-07T08:11:39;21.90;99.90
11497;DHT22;5805;51.542;7.230;2023-05-07T08:14:04;22.20;99.90
11497;DHT22;5805;51.542;7.230;2023-05-07T08:16:30;22.30;99.90
11497;DHT22;5805;51.542;7.230;2023-05-07T08:18:56;22.30;99.90
11497;DHT22;5805;51.542;7.230;2023-05-07T08:21:22;22.20;99.90
11497;DHT22;5805;51.542;7.230;2023-05-07T08:23:48;22.10;99.90
11497;DHT22;5805;51.542;7.230;2023-05-07T08:26:13;21.80;99.90
11497;DHT22;5805;51.542;7.230;2023-05-07T08:28:40;21.40;99.90
11497;DHT22;5805;51.542;7.230;2023-05-07T08:31:06;20.90;99.90
11497;DHT22;5805;51.542;7.230;2023-05-07T08:33:32;20.80;99.90
11497;DHT22;5805;51.542;7.230;2023-05-07T08:35:57;20.50;99.90
11497;DHT22;5805;51.542;7.230;2023-05-07T08:38:23;20.60;99.90
11497;DHT22;5805;51.542;7.230;2023-05-07T08:40:49;20.50;99.90
11497;DHT22;5805;51.542;7.230;2023-05-07T08:43:15;20.70;99.90
11497;DHT22;5805;51.542;7.230;2023-05-07T08:45:43;20.80;99.90
11497;DHT22;5805;51.542;7.230;2023-05-07T08:48:15;21.00;99.90
11497;DHT22;5805;51.542;7.230;2023-05-07T08:50:41;21.10;99.90
11497;DHT22;5805;51.542;7.230;2023-05-07T08:53:07;21.30;99.90
11497;DHT22;5805;51.542;7.230;2023-05-07T08:55:32;21.60;99.90
11497;DHT22;5805;51.542;7.230;2023-05-07T08:57:58;21.40;99.90
11497;DHT22;5805;51.542;7.230;2023-05-07T09:00:24;21.70;99.90
11497;DHT22;5805;51.542;7.230;2023-05-07T09:02:52;22.10;99.90
11497;DHT22;5805;51.542;7.230;2023-05-07T09:05:18;22.40;99.90
11497;DHT22;5805;51.542;7.230;2023-05-07T09:07:43;22.50;99.90
11497;DHT22;5805;51.542;7.230;2023-05-07T09:10:09;22.60;99.90
11497;DHT22;5805;51.542;7.230;2023-05-07T09:12:35;22.60;99.90
11497;DHT22;5805;51.542;7.230;2023-05-07T09:15:01;22.90;99.90
11497;DHT22;5805;51.542;7.230;2023-05-07T09:17:27;23.00;99.90
11497;DHT22;5805;51.542;7.230;2023-05-07T09:19:54;23.10;99.90
11497;DHT22;5805;51.542;7.230;2023-05-07T09:22:20;23.10;99.90
11497;DHT22;5805;51.542;7.230;2023-05-07T09:24:48;23.20;99.90
11497;DHT22;5805;51.542;7.230;2023-05-07T09:27:13;23.30;99.90
11497;DHT22;5805;51.542;7.230;2023-05-07T09:29:39;23.30;99.90
11497;DHT22;5805;51.542;7.230;2023-05-07T09:32:06;23.70;99.90
11497;DHT22;5805;51.542;7.230;2023-05-07T09:34:32;23.90;99.90
11497;DHT22;5805;51.542;7.230;2023-05-07T09:37:02;23.30;99.90
11497;DHT22;5805;51.542;7.230;2023-05-07T09:39:38;22.80;99.90
11497;DHT22;5805;51.542;7.230;2023-05-07T09:42:04;22.50;99.90
11497;DHT22;5805;51.542;7.230;2023-05-07T09:44:31;22.70;99.90
11497;DHT22;5805;51.542;7.230;2023-05-07T09:47:00;23.40;99.90
11497;DHT22;5805;51.542;7.230;2023-05-07T09:49:29;23.50;99.90
11497;DHT22;5805;51.542;7.230;2023-05-07T09:51:55;23.50;99.80
11497;DHT22;5805;51.542;7.230;2023-05-07T09:54:22;23.70;99.90
11497;DHT22;5805;51.542;7.230;2023-05-07T09:56:49;23.70;99.90
11497;DHT22;5805;51.542;7.230;2023-05-07T09:59:15;23.40;99.90
11497;DHT22;5805;51.542;7.230;2023-05-07T10:01:42;23.70;99.90
11497;DHT22;5805;51.542;7.230;2023-05-07T10:04:09;23.90;99.90
11497;DHT22;5805;51.542;7.230;2023-05-07T10:06:35;24.30;99.00
11497;DHT22;5805;51.542;7.230;2023-05-07T10:09:02;24.50;98.10
11497;DHT22;5805;51.542;7.230;2023-05-07T10:11:29;24.50;96.70
11497;DHT22;5805;51.542;7.230;2023-05-07T10:13:56;24.40;94.60
11497;DHT22;5805;51.542;7.230;2023-05-07T10:16:23;24.30;96.90
11497;DHT22;5805;51.542;7.230;2023-05-07T10:18:50;24.20;97.60
11497;DHT22;5805;51.542;7.230;2023-05-07T10:21:17;24.10;96.50
11497;DHT22;5805;51.542;7.230;2023-05-07T10:23:45;24.20;97.20
11497;DHT22;5805;51.542;7.230;2023-05-07T10:26:12;24.30;96.80
11497;DHT22;5805;51.542;7.230;2023-05-07T10:28:43;24.50;97.60
11497;DHT22;5805;51.542;7.230;2023-05-07T10:31:20;24.60;96.90
11497;DHT22;5805;51.542;7.230;2023-05-07T10:33:50;24.70;96.30
11497;DHT22;5805;51.542;7.230;2023-05-07T10:36:17;24.80;96.20
11497;DHT22;5805;51.542;7.230;2023-05-07T10:38:43;24.60;95.50
11497;DHT22;5805;51.542;7.230;2023-05-07T10:41:09;24.50;94.90
11497;DHT22;5805;51.542;7.230;2023-05-07T10:43:41;24.60;96.60
11497;DHT22;5805;51.542;7.230;2023-05-07T10:46:14;24.70;95.30
11497;DHT22;5805;51.542;7.230;2023-05-07T10:49:07;24.80;94.70
11497;DHT22;5805;51.542;7.230;2023-05-07T10:51:33;24.80;95.80
11497;DHT22;5805;51.542;7.230;2023-05-07T10:54:21;24.90;95.00
11497;DHT22;5805;51.542;7.230;2023-05-07T10:56:47;25.00;94.10
11497;DHT22;5805;51.542;7.230;2023-05-07T10:59:33;25.00;95.00
11497;DHT22;5805;51.542;7.230;2023-05-07T11:02:00;24.90;93.70
11497;DHT22;5805;51.542;7.230;2023-05-07T11:04:26;24.90;95.60
11497;DHT22;5805;51.542;7.230;2023-05-07T11:07:24;24.90;94.50
11497;DHT22;5805;51.542;7.230;2023-05-07T11:10:04;24.50;96.60
11497;DHT22;5805;51.542;7.230;2023-05-07T11:12:54;24.60;96.40
11497;DHT22;5805;51.542;7.230;2023-05-07T11:15:48;24.50;96.40
11497;DHT22;5805;51.542;7.230;2023-05-07T11:18:17;24.60;96.60
11497;DHT22;5805;51.542;7.230;2023-05-07T11:20:51;24.80;95.90
11497;DHT22;5805;51.542;7.230;2023-05-07T11:23:55;25.00;94.80
11497;DHT22;5805;51.542;7.230;2023-05-07T11:26:21;24.90;94.30
11497;DHT22;5805;51.542;7.230;2023-05-07T11:28:47;24.80;94.50
11497;DHT22;5805;51.542;7.230;2023-05-07T11:31:21;24.80;94.80
11497;DHT22;5805;51.542;7.230;2023-05-07T11:33:47;24.90;94.00
11497;DHT22;5805;51.542;7.230;2023-05-07T11:36:14;24.90;95.50
11497;DHT22;5805;51.542;7.230;2023-05-07T11:38:40;25.10;95.60
11497;DHT22;5805;51.542;7.230;2023-05-07T11:41:07;25.40;94.80
11497;DHT22;5805;51.542;7.230;2023-05-07T11:43:33;25.20;93.60
11497;DHT22;5805;51.542;7.230;2023-05-07T11:46:05;25.40;95.00
11497;DHT22;5805;51.542;7.230;2023-05-07T11:48:33;25.50;93.20
11497;DHT22;5805;51.542;7.230;2023-05-07T11:51:00;25.60;91.60
11497;DHT22;5805;51.542;7.230;2023-05-07T11:53:27;25.80;91.50
11497;DHT22;5805;51.542;7.230;2023-05-07T11:55:53;25.20;88.40
11497;DHT22;5805;51.542;7.230;2023-05-07T11:58:21;25.00;90.80
11497;DHT22;5805;51.542;7.230;2023-05-07T12:00:51;25.00;91.70
11497;DHT22;5805;51.542;7.230;2023-05-07T12:03:17;25.10;93.20
11497;DHT22;5805;51.542;7.230;2023-05-07T12:05:45;25.00;93.60
11497;DHT22;5805;51.542;7.230;2023-05-07T12:08:14;25.10;93.60
11497;DHT22;5805;51.542;7.230;2023-05-07T12:10:41;25.30;94.50
11497;DHT22;5805;51.542;7.230;2023-05-07T12:13:14;25.30;90.80
11497;DHT22;5805;51.542;7.230;2023-05-07T12:15:40;25.00;92.70
11497;DHT22;5805;51.542;7.230;2023-05-07T12:18:06;24.60;92.10
11497;DHT22;5805;51.542;7.230;2023-05-07T12:20:33;24.60;93.80
11497;DHT22;5805;51.542;7.230;2023-05-07T12:23:01;24.60;93.40
11497;DHT22;5805;51.542;7.230;2023-05-07T12:25:29;24.60;93.70
11497;DHT22;5805;51.542;7.230;2023-05-07T12:27:55;24.60;94.60
11497;DHT22;5805;51.542;7.230;2023-05-07T12:30:21;24.80;94.80
11497;DHT22;5805;51.542;7.230;2023-05-07T12:32:46;24.90;94.30
11497;DHT22;5805;51.542;7.230;2023-05-07T12:35:12;25.00;94.90
11497;DHT22;5805;51.542;7.230;2023-05-07T12:37:38;25.40;94.10
11497;DHT22;5805;51.542;7.230;2023-05-07T12:40:06;25.50;91.10
11497;DHT22;5805;51.542;7.230;2023-05-07T12:42:34;25.40;89.50
11497;DHT22;5805;51.542;7.230;2023-05-07T12:45:07;25.30;91.70
11497;DHT22;5805;51.542;7.230;2023-05-07T12:47:32;25.50;92.00
11497;DHT22;5805;51.542;7.230;2023-05-07T12:49:59;25.50;90.90
11497;DHT22;5805;51.542;7.230;2023-05-07T12:52:25;25.30;90.60
11497;DHT22;5805;51.542;7.230;2023-05-07T12:54:50;25.50;91.20
11497;DHT22;5805;51.542;7.230;2023-05-07T12:57:19;25.60;89.70
11497;DHT22;5805;51.542;7.230;2023-05-07T12:59:45;25.40;85.80
11497;DHT22;5805;51.542;7.230;2023-05-07T13:02:11;25.30;88.50
11497;DHT22;5805;51.542;7.230;2023-05-07T13:04:37;25.40;87.10
11497;DHT22;5805;51.542;7.230;2023-05-07T13:07:02;25.30;86.00
11497;DHT22;5805;51.542;7.230;2023-05-07T13:09:28;25.20;88.00
11497;DHT22;5805;51.542;7.230;2023-05-07T13:11:54;25.20;85.80
11497;DHT22;5805;51.542;7.230;2023-05-07T13:14:21;25.10;87.20
11497;DHT22;5805;51.542;7.230;2023-05-07T13:16:47;25.00;86.80
11497;DHT22;5805;51.542;7.230;2023-05-07T13:19:13;25.00;87.70
11497;DHT22;5805;51.542;7.230;2023-05-07T13:21:38;24.80;87.60
11497;DHT22;5805;51.542;7.230;2023-05-07T13:24:04;24.70;90.10
11497;DHT22;5805;51.542;7.230;2023-05-07T13:26:31;24.70;89.90
11497;DHT22;5805;51.542;7.230;2023-05-07T13:28:57;24.60;90.30
11497;DHT22;5805;51.542;7.230;2023-05-07T13:31:24;24.50;90.70
11497;DHT22;5805;51.542;7.230;2023-05-07T13:33:50;24.40;91.10
11497;DHT22;5805;51.542;7.230;2023-05-07T13:36:15;24.30;91.70
11497;DHT22;5805;51.542;7.230;2023-05-07T13:38:41;24.30;92.60
11497;DHT22;5805;51.542;7.230;2023-05-07T13:41:07;24.40;93.50
11497;DHT22;5805;51.542;7.230;2023-05-07T13:43:32;24.30;93.60
11497;DHT22;5805;51.542;7.230;2023-05-07T13:45:58;24.30;93.90
11497;DHT22;5805;51.542;7.230;2023-05-07T13:48:25;24.20;94.30
11497;DHT22;5805;51.542;7.230;2023-05-07T13:50:51;24.20;95.00
11497;DHT22;5805;51.542;7.230;2023-05-07T13:53:17;24.30;94.10
11497;DHT22;5805;51.542;7.230;2023-05-07T13:55:42;24.40;94.00
11497;DHT22;5805;51.542;7.230;2023-05-07T13:58:08;24.20;92.80
11497;DHT22;5805;51.542;7.230;2023-05-07T14:00:34;24.10;94.20
11497;DHT22;5805;51.542;7.230;2023-05-07T14:02:59;23.90;93.30
11497;DHT22;5805;51.542;7.230;2023-05-07T14:05:27;23.80;95.20
11497;DHT22;5805;51.542;7.230;2023-05-07T14:07:52;23.90;94.50
11497;DHT22;5805;51.542;7.230;2023-05-07T14:10:18;24.00;94.00
11497;DHT22;5805;51.542;7.230;2023-05-07T14:12:45;23.90;93.50
11497;DHT22;5805;51.542;7.230;2023-05-07T14:15:11;23.60;93.80
11497;DHT22;5805;51.542;7.230;2023-05-07T14:17:37;23.40;95.40
11497;DHT22;5805;51.542;7.230;2023-05-07T14:20:03;23.40;96.40
11497;DHT22;5805;51.542;7.230;2023-05-07T14:22:30;23.40;96.80
11497;DHT22;5805;51.542;7.230;2023-05-07T14:24:56;23.40;97.30
11497;DHT22;5805;51.542;7.230;2023-05-07T14:27:22;23.30;96.90
11497;DHT22;5805;51.542;7.230;2023-05-07T14:29:47;23.10;97.60
11497;DHT22;5805;51.542;7.230;2023-05-07T14:32:13;23.00;98.70
11497;DHT22;5805;51.542;7.230;2023-05-07T14:34:39;23.00;99.10
11497;DHT22;5805;51.542;7.230;2023-05-07T14:37:05;23.10;99.60
11497;DHT22;5805;51.542;7.230;2023-05-07T14:39:32;23.30;99.70
11497;DHT22;5805;51.542;7.230;2023-05-07T14:41:57;23.40;99.60
11497;DHT22;5805;51.542;7.230;2023-05-07T14:44:23;23.20;99.70
11497;DHT22;5805;51.542;7.230;2023-05-07T14:46:49;23.20;99.90
11497;DHT22;5805;51.542;7.230;2023-05-07T14:49:14;23.40;99.90
11497;DHT22;5805;51.542;7.230;2023-05-07T14:51:40;23.50;99.90
11497;DHT22;5805;51.542;7.230;2023-05-07T14:54:06;23.50;99.90
11497;DHT22;5805;51.542;7.230;2023-05-07T14:56:34;23.60;99.90
11497;DHT22;5805;51.542;7.230;2023-05-07T14:59:00;23.40;99.90
11497;DHT22;5805;51.542;7.230;2023-05-07T15:01:25;23.20;99.90
11497;DHT22;5805;51.542;7.230;2023-05-07T15:03:51;23.20;99.90
11497;DHT22;5805;51.542;7.230;2023-05-07T15:06:17;23.20;99.90
11497;DHT22;5805;51.542;7.230;2023-05-07T15:08:43;23.30;99.90
11497;DHT22;5805;51.542;7.230;2023-05-07T15:11:08;23.40;99.90
11497;DHT22;5805;51.542;7.230;2023-05-07T15:13:35;23.50;99.90
11497;DHT22;5805;51.542;7.230;2023-05-07T15:16:01;23.50;99.00
11497;DHT22;5805;51.542;7.230;2023-05-07T15:18:27;23.60;99.00
11497;DHT22;5805;51.542;7.230;2023-05-07T15:20:52;23.70;99.10
11497;DHT22;5805;51.542;7.230;2023-05-07T15:23:18;23.20;98.50
11497;DHT22;5805;51.542;7.230;2023-05-07T15:25:44;23.20;99.90
11497;DHT22;5805;51.542;7.230;2023-05-07T15:28:10;23.20;99.90
11497;DHT22;5805;51.542;7.230;2023-05-07T15:30:37;23.20;99.90
11497;DHT22;5805;51.542;7.230;2023-05-07T15:33:03;23.30;99.90
11497;DHT22;5805;51.542;7.230;2023-05-07T15:35:29;23.20;99.90
11497;DHT22;5805;51.542;7.230;2023-05-07T15:37:54;23.20;99.90
11497;DHT22;5805;51.542;7.230;2023-05-07T15:40:20;23.30;99.90
11497;DHT22;5805;51.542;7.230;2023-05-07T15:42:46;23.40;99.90